sensor_id;sensor_type;location;lat;lon;timestamp;temperature;humidity
24148;DHT22;12309;51.450;-2.624;2023-02-19T00:02:23;10.00;99.90
24148;DHT22;12309;51.450;-2.624;2023-02-19T00:04:49;10.00;99.90
24148;DHT22;12309;51.450;-2.624;2023-02-19T00:07:14;9.90;99.90
24148;DHT22;12309;51.450;-2.624;2023-02-19T00:09:40;9.90;99.90
24148;DHT22;12309;51.450;-2.624;2023-02-19T00:12:06;9.80;99.90
24148;DHT22;12309;51.450;-2.624;2023-02-19T00:14:31;9.80;99.90
24148;DHT22;12309;51.450;-2.624;2023-02-19T00:16:57;9.70;99.90
24148;DHT22;12309;51.450;-2.624;2023-02-19T00:19:23;9.70;99.90
24148;DHT22;12309;51.450;-2.624;2023-02-19T00:21:52;9.70;99.90
24148;DHT22;12309;51.450;-2.624;2023-02-19T00:24:18;9.60;99.90
24148;DHT22;12309;51.450;-2.624;2023-02-19T00:26:44;9.50;99.90
24148;DHT22;12309;51.450;-2.624;2023-02-19T00:29:19;9.50;99.90
24148;DHT22;12309;51.450;-2.624;2023-02-19T00:31:45;9.60;99.90
24148;DHT22;12309;51.450;-2.624;2023-02-19T00:34:12;9.60;99.90
24148;DHT22;12309;51.450;-2.624;2023-02-19T00:36:39;9.60;99.90
24148;DHT22;12309;51.450;-2.624;2023-02-19T00:39:06;9.50;99.90
24148;DHT22;12309;51.450;-2.624;2023-02-19T00:41:32;9.50;99.90
24148;DHT22;12309;51.450;-2.624;2023-02-19T00:44:06;9.60;99.90
24148;DHT22;12309;51.450;-2.624;2023-02-19T00:46:35;9.60;99.90
24148;DHT22;12309;51.450;-2.624;2023-02-19T00:51:29;9.60;99.90
24148;DHT22;12309;51.450;-2.624;2023-02-19T00:53:55;10.30;99.90
24148;DHT22;12309;51.450;-2.624;2023-02-19T00:56:21;9.60;99.90
24148;DHT22;12309;51.450;-2.624;2023-02-19T00:58:47;9.40;99.90
24148;DHT22;12309;51.450;-2.624;2023-02-19T01:01:13;9.70;99.90
24148;DHT22;12309;51.450;-2.624;2023-02-19T01:06:07;9.70;99.90
24148;DHT22;12309;51.450;-2.624;2023-02-19T01:08:33;9.70;99.90
24148;DHT22;12309;51.450;-2.624;2023-02-19T01:11:00;9.60;99.90
24148;DHT22;12309;51.450;-2.624;2023-02-19T01:13:27;9.60;99.90
24148;DHT22;12309;51.450;-2.624;2023-02-19T01:18:19;9.60;99.90
24148;DHT22;12309;51.450;-2.624;2023-02-19T01:20:45;9.60;99.90
24148;DHT22;12309;51.450;-2.624;2023-02-19T01:23:12;9.50;99.90
24148;DHT22;12309;51.450;-2.624;2023-02-19T01:25:41;9.50;99.90
24148;DHT22;12309;51.450;-2.624;2023-02-19T01:28:08;9.40;99.90
24148;DHT22;12309;51.450;-2.624;2023-02-19T01:30:35;10.20;99.90
24148;DHT22;12309;51.450;-2.624;2023-02-19T01:33:06;9.30;99.90
24148;DHT22;12309;51.450;-2.624;2023-02-19T01:35:32;9.30;99.90
24148;DHT22;12309;51.450;-2.624;2023-02-19T01:37:58;9.30;99.90
24148;DHT22;12309;51.450;-2.624;2023-02-19T01:40:24;9.20;99.90
24148;DHT22;12309;51.450;-2.624;2023-02-19T01:42:50;9.20;99.90
24148;DHT22;12309;51.450;-2.624;2023-02-19T01:45:26;9.20;99.90
24148;DHT22;12309;51.450;-2.624;2023-02-19T01:50:28;9.20;99.90
24148;DHT22;12309;51.450;-2.624;2023-02-19T01:52:55;9.20;99.90
24148;DHT22;12309;51.450;-2.624;2023-02-19T01:55:21;9.30;99.90
24148;DHT22;12309;51.450;-2.624;2023-02-19T01:57:50;9.10;99.90
24148;DHT22;12309;51.450;-2.624;2023-02-19T02:00:18;9.30;99.90
24148;DHT22;12309;51.450;-2.624;2023-02-19T02:02:48;9.10;99.90
24148;DHT22;12309;51.450;-2.624;2023-02-19T02:05:28;9.30;99.90
24148;DHT22;12309;51.450;-2.624;2023-02-19T02:07:59;9.10;99.90
24148;DHT22;12309;51.450;-2.624;2023-02-19T02:10:45;9.10;99.90
24148;DHT22;12309;51.450;-2.624;2023-02-19T02:13:11;9.10;99.90
24148;DHT22;12309;51.450;-2.624;2023-02-19T02:15:50;9.00;99.90
24148;DHT22;12309;51.450;-2.624;2023-02-19T02:21:43;8.90;99.90
24148;DHT22;12309;51.450;-2.624;2023-02-19T02:35:33;10.60;99.90
24148;DHT22;12309;51.450;-2.624;2023-02-19T02:38:03;8.90;99.90
24148;DHT22;12309;51.450;-2.624;2023-02-19T02:40:30;8.90;99.90
24148;DHT22;12309;51.450;-2.624;2023-02-19T02:42:57;8.90;99.90
24148;DHT22;12309;51.450;-2.624;2023-02-19T02:45:29;8.90;99.90
24148;DHT22;12309;51.450;-2.624;2023-02-19T02:53:21;8.80;99.90
24148;DHT22;12309;51.450;-2.624;2023-02-19T02:56:07;8.80;99.90
24148;DHT22;12309;51.450;-2.624;2023-02-19T02:58:34;8.70;99.90
24148;DHT22;12309;51.450;-2.624;2023-02-19T03:01:04;8.80;99.90
24148;DHT22;12309;51.450;-2.624;2023-02-19T03:03:53;8.70;99.90
24148;DHT22;12309;51.450;-2.624;2023-02-19T03:06:21;8.80;99.90
24148;DHT22;12309;51.450;-2.624;2023-02-19T03:08:54;8.80;99.90
24148;DHT22;12309;51.450;-2.624;2023-02-19T03:11:21;8.80;99.90
24148;DHT22;12309;51.450;-2.624;2023-02-19T03:14:21;8.80;99.90
24148;DHT22;12309;51.450;-2.624;2023-02-19T03:17:28;8.80;99.90
24148;DHT22;12309;51.450;-2.624;2023-02-19T03:20:19;8.80;99.90
24148;DHT22;12309;51.450;-2.624;2023-02-19T03:25:17;8.70;99.90
24148;DHT22;12309;51.450;-2.624;2023-02-19T03:28:05;8.90;99.90
24148;DHT22;12309;51.450;-2.624;2023-02-19T03:30:34;8.80;99.90
24148;DHT22;12309;51.450;-2.624;2023-02-19T03:33:07;8.80;99.90
24148;DHT22;12309;51.450;-2.624;2023-02-19T03:35:55;8.80;99.90
24148;DHT22;12309;51.450;-2.624;2023-02-19T03:38:31;8.80;99.90
24148;DHT22;12309;51.450;-2.624;2023-02-19T03:43:40;8.80;99.90
24148;DHT22;12309;51.450;-2.624;2023-02-19T03:46:20;8.80;99.90
24148;DHT22;12309;51.450;-2.624;2023-02-19T03:56:41;8.70;99.90
24148;DHT22;12309;51.450;-2.624;2023-02-19T03:59:24;8.60;99.90
24148;DHT22;12309;51.450;-2.624;2023-02-19T04:01:59;8.70;99.90
24148;DHT22;12309;51.450;-2.624;2023-02-19T04:04:33;8.70;99.90
24148;DHT22;12309;51.450;-2.624;2023-02-19T04:07:01;8.60;99.90
24148;DHT22;12309;51.450;-2.624;2023-02-19T04:09:32;8.70;99.90
24148;DHT22;12309;51.450;-2.624;2023-02-19T04:11:59;8.80;99.90
24148;DHT22;12309;51.450;-2.624;2023-02-19T04:14:34;8.90;99.90
24148;DHT22;12309;51.450;-2.624;2023-02-19T04:17:15;8.70;99.90
24148;DHT22;12309;51.450;-2.624;2023-02-19T04:19:42;8.70;99.90
24148;DHT22;12309;51.450;-2.624;2023-02-19T04:22:08;8.40;99.90
24148;DHT22;12309;51.450;-2.624;2023-02-19T04:24:41;8.70;99.90
24148;DHT22;12309;51.450;-2.624;2023-02-19T04:27:09;8.60;99.90
24148;DHT22;12309;51.450;-2.624;2023-02-19T04:29:35;8.60;99.90
24148;DHT22;12309;51.450;-2.624;2023-02-19T04:32:01;8.60;99.90
24148;DHT22;12309;51.450;-2.624;2023-02-19T04:34:26;8.50;99.90
24148;DHT22;12309;51.450;-2.624;2023-02-19T04:36:52;8.60;99.90
24148;DHT22;12309;51.450;-2.624;2023-02-19T04:39:18;8.50;99.90
24148;DHT22;12309;51.450;-2.624;2023-02-19T04:41:43;8.60;99.90
24148;DHT22;12309;51.450;-2.624;2023-02-19T04:44:09;8.50;99.90
24148;DHT22;12309;51.450;-2.624;2023-02-19T04:46:34;8.50;99.90
24148;DHT22;12309;51.450;-2.624;2023-02-19T04:49:00;8.50;99.90
24148;DHT22;12309;51.450;-2.624;2023-02-19T04:51:26;8.50;99.90
24148;DHT22;12309;51.450;-2.624;2023-02-19T04:53:51;8.50;99.90
24148;DHT22;12309;51.450;-2.624;2023-02-19T04:56:17;8.40;99.90
24148;DHT22;12309;51.450;-2.624;2023-02-19T04:58:43;8.40;99.90
24148;DHT22;12309;51.450;-2.624;2023-02-19T05:01:10;8.40;99.90
24148;DHT22;12309;51.450;-2.624;2023-02-19T05:06:07;8.30;99.90
24148;DHT22;12309;51.450;-2.624;2023-02-19T05:08:33;8.30;99.90
24148;DHT22;12309;51.450;-2.624;2023-02-19T05:10:59;8.30;99.90
24148;DHT22;12309;51.450;-2.624;2023-02-19T05:13:26;8.20;99.90
24148;DHT22;12309;51.450;-2.624;2023-02-19T05:16:03;8.00;99.90
24148;DHT22;12309;51.450;-2.624;2023-02-19T05:18:29;8.20;99.90
24148;DHT22;12309;51.450;-2.624;2023-02-19T05:20:57;8.20;99.90
24148;DHT22;12309;51.450;-2.624;2023-02-19T05:23:23;8.30;99.90
24148;DHT22;12309;51.450;-2.624;2023-02-19T05:25:49;8.10;99.90
24148;DHT22;12309;51.450;-2.624;2023-02-19T05:28:14;8.10;99.90
24148;DHT22;12309;51.450;-2.624;2023-02-19T05:30:48;8.10;99.90
24148;DHT22;12309;51.450;-2.624;2023-02-19T05:33:14;8.10;99.90
24148;DHT22;12309;51.450;-2.624;2023-02-19T05:35:51;8.10;99.90
24148;DHT22;12309;51.450;-2.624;2023-02-19T05:38:17;8.00;99.90
24148;DHT22;12309;51.450;-2.624;2023-02-19T05:40:44;8.10;99.90
24148;DHT22;12309;51.450;-2.624;2023-02-19T05:43:11;8.10;99.90
24148;DHT22;12309;51.450;-2.624;2023-02-19T05:45:37;8.00;99.90
24148;DHT22;12309;51.450;-2.624;2023-02-19T05:48:04;8.30;99.90
24148;DHT22;12309;51.450;-2.624;2023-02-19T05:50:31;7.90;99.90
24148;DHT22;12309;51.450;-2.624;2023-02-19T05:53:01;7.90;99.90
24148;DHT22;12309;51.450;-2.624;2023-02-19T05:55:27;7.90;99.90
24148;DHT22;12309;51.450;-2.624;2023-02-19T05:57:53;8.00;99.90
24148;DHT22;12309;51.450;-2.624;2023-02-19T06:00:20;8.00;99.90
24148;DHT22;12309;51.450;-2.624;2023-02-19T06:02:46;7.90;99.90
24148;DHT22;12309;51.450;-2.624;2023-02-19T06:05:13;7.90;99.90
24148;DHT22;12309;51.450;-2.624;2023-02-19T06:07:39;7.90;99.90
24148;DHT22;12309;51.450;-2.624;2023-02-19T06:10:06;7.90;99.90
24148;DHT22;12309;51.450;-2.624;2023-02-19T06:12:32;8.00;99.90
24148;DHT22;12309;51.450;-2.624;2023-02-19T06:14:58;7.90;99.90
24148;DHT22;12309;51.450;-2.624;2023-02-19T06:17:23;7.90;99.90
24148;DHT22;12309;51.450;-2.624;2023-02-19T06:19:49;7.80;99.90
24148;DHT22;12309;51.450;-2.624;2023-02-19T06:22:15;7.80;99.90
24148;DHT22;12309;51.450;-2.624;2023-02-19T06:24:41;7.80;99.90
24148;DHT22;12309;51.450;-2.624;2023-02-19T06:27:07;7.70;99.90
24148;DHT22;12309;51.450;-2.624;2023-02-19T06:29:33;7.90;99.90
24148;DHT22;12309;51.450;-2.624;2023-02-19T06:31:59;7.80;99.90
24148;DHT22;12309;51.450;-2.624;2023-02-19T06:34:25;7.80;99.90
24148;DHT22;12309;51.450;-2.624;2023-02-19T06:36:51;7.90;99.90
24148;DHT22;12309;51.450;-2.624;2023-02-19T06:39:17;7.80;99.90
24148;DHT22;12309;51.450;-2.624;2023-02-19T06:44:09;7.80;99.90
24148;DHT22;12309;51.450;-2.624;2023-02-19T06:46:35;7.70;99.90
24148;DHT22;12309;51.450;-2.624;2023-02-19T06:49:03;8.00;99.90
24148;DHT22;12309;51.450;-2.624;2023-02-19T06:51:28;7.70;99.90
24148;DHT22;12309;51.450;-2.624;2023-02-19T06:53:54;7.70;99.90
24148;DHT22;12309;51.450;-2.624;2023-02-19T06:56:31;7.80;99.90
24148;DHT22;12309;51.450;-2.624;2023-02-19T06:58:59;7.80;99.90
24148;DHT22;12309;51.450;-2.624;2023-02-19T07:01:25;7.60;99.90
24148;DHT22;12309;51.450;-2.624;2023-02-19T07:03:51;7.70;99.90
24148;DHT22;12309;51.450;-2.624;2023-02-19T07:06:18;7.60;99.90
24148;DHT22;12309;51.450;-2.624;2023-02-19T07:08:44;7.60;99.90
24148;DHT22;12309;51.450;-2.624;2023-02-19T07:11:09;7.60;99.90
24148;DHT22;12309;51.450;-2.624;2023-02-19T07:13:35;7.60;99.90
24148;DHT22;12309;51.450;-2.624;2023-02-19T07:16:06;7.60;99.90
24148;DHT22;12309;51.450;-2.624;2023-02-19T07:18:35;7.50;99.90
24148;DHT22;12309;51.450;-2.624;2023-02-19T07:21:06;7.70;99.90
24148;DHT22;12309;51.450;-2.624;2023-02-19T07:23:31;7.80;99.90
24148;DHT22;12309;51.450;-2.624;2023-02-19T07:25:57;7.80;99.90
24148;DHT22;12309;51.450;-2.624;2023-02-19T07:30:49;7.90;99.90
24148;DHT22;12309;51.450;-2.624;2023-02-19T07:33:14;7.80;99.90
24148;DHT22;12309;51.450;-2.624;2023-02-19T07:35:49;7.90;99.90
24148;DHT22;12309;51.450;-2.624;2023-02-19T07:38:16;7.90;99.90
24148;DHT22;12309;51.450;-2.624;2023-02-19T07:40:50;8.10;99.90
24148;DHT22;12309;51.450;-2.624;2023-02-19T07:43:16;8.20;99.90
24148;DHT22;12309;51.450;-2.624;2023-02-19T07:45:42;7.90;99.90
24148;DHT22;12309;51.450;-2.624;2023-02-19T07:48:08;8.20;99.90
24148;DHT22;12309;51.450;-2.624;2023-02-19T07:52:59;8.10;99.90
24148;DHT22;12309;51.450;-2.624;2023-02-19T07:55:25;8.00;99.90
24148;DHT22;12309;51.450;-2.624;2023-02-19T07:57:51;7.90;99.90
24148;DHT22;12309;51.450;-2.624;2023-02-19T08:00:16;8.00;99.90
24148;DHT22;12309;51.450;-2.624;2023-02-19T08:02:44;8.00;99.90
24148;DHT22;12309;51.450;-2.624;2023-02-19T08:05:31;8.10;99.90
24148;DHT22;12309;51.450;-2.624;2023-02-19T08:07:58;8.30;99.90
24148;DHT22;12309;51.450;-2.624;2023-02-19T08:10:24;8.10;99.90
24148;DHT22;12309;51.450;-2.624;2023-02-19T08:13:11;8.20;99.90
24148;DHT22;12309;51.450;-2.624;2023-02-19T08:18:16;8.30;99.90
24148;DHT22;12309;51.450;-2.624;2023-02-19T08:20:42;8.50;99.90
24148;DHT22;12309;51.450;-2.624;2023-02-19T08:23:09;8.60;99.90
24148;DHT22;12309;51.450;-2.624;2023-02-19T08:25:35;8.90;99.90
24148;DHT22;12309;51.450;-2.624;2023-02-19T08:28:01;9.00;99.90
24148;DHT22;12309;51.450;-2.624;2023-02-19T08:30:28;9.20;99.90
24148;DHT22;12309;51.450;-2.624;2023-02-19T08:32:54;9.30;99.90
24148;DHT22;12309;51.450;-2.624;2023-02-19T08:35:20;9.60;99.90
24148;DHT22;12309;51.450;-2.624;2023-02-19T08:37:46;9.60;99.90
24148;DHT22;12309;51.450;-2.624;2023-02-19T08:40:12;9.80;99.90
24148;DHT22;12309;51.450;-2.624;2023-02-19T08:45:04;10.10;99.90
24148;DHT22;12309;51.450;-2.624;2023-02-19T08:47:30;10.20;99.90
24148;DHT22;12309;51.450;-2.624;2023-02-19T08:49:56;10.20;99.90
24148;DHT22;12309;51.450;-2.624;2023-02-19T08:52:21;10.50;99.90
24148;DHT22;12309;51.450;-2.624;2023-02-19T08:54:47;11.10;99.90
24148;DHT22;12309;51.450;-2.624;2023-02-19T08:57:13;10.80;99.90
24148;DHT22;12309;51.450;-2.624;2023-02-19T08:59:38;10.50;99.90
24148;DHT22;12309;51.450;-2.624;2023-02-19T09:02:04;10.30;99.90
24148;DHT22;12309;51.450;-2.624;2023-02-19T09:04:29;10.20;99.90
24148;DHT22;12309;51.450;-2.624;2023-02-19T09:09:21;10.10;99.90
24148;DHT22;12309;51.450;-2.624;2023-02-19T09:11:46;10.10;99.90
24148;DHT22;12309;51.450;-2.624;2023-02-19T09:14:12;10.20;99.90
24148;DHT22;12309;51.450;-2.624;2023-02-19T09:16:38;10.20;99.90
24148;DHT22;12309;51.450;-2.624;2023-02-19T09:19:03;10.20;99.90
24148;DHT22;12309;51.450;-2.624;2023-02-19T09:21:29;10.20;99.90
24148;DHT22;12309;51.450;-2.624;2023-02-19T09:23:55;10.20;99.90
24148;DHT22;12309;51.450;-2.624;2023-02-19T09:26:21;10.50;99.90
24148;DHT22;12309;51.450;-2.624;2023-02-19T09:28:47;10.60;99.90
24148;DHT22;12309;51.450;-2.624;2023-02-19T09:31:14;10.60;99.90
24148;DHT22;12309;51.450;-2.624;2023-02-19T09:33:44;10.50;99.90
24148;DHT22;12309;51.450;-2.624;2023-02-19T09:36:11;10.50;99.90
24148;DHT22;12309;51.450;-2.624;2023-02-19T09:38:37;10.60;99.90
24148;DHT22;12309;51.450;-2.624;2023-02-19T09:41:13;10.70;99.90
24148;DHT22;12309;51.450;-2.624;2023-02-19T09:43:39;10.70;99.90
24148;DHT22;12309;51.450;-2.624;2023-02-19T09:46:23;10.60;99.90
24148;DHT22;12309;51.450;-2.624;2023-02-19T09:48:51;10.60;99.90
24148;DHT22;12309;51.450;-2.624;2023-02-19T09:51:17;10.70;99.90
24148;DHT22;12309;51.450;-2.624;2023-02-19T09:53:45;11.10;99.90
24148;DHT22;12309;51.450;-2.624;2023-02-19T09:56:12;11.00;99.90
24148;DHT22;12309;51.450;-2.624;2023-02-19T09:58:46;11.00;99.90
24148;DHT22;12309;51.450;-2.624;2023-02-19T10:01:13;11.00;99.90
24148;DHT22;12309;51.450;-2.624;2023-02-19T10:03:40;10.90;99.90
24148;DHT22;12309;51.450;-2.624;2023-02-19T10:06:18;10.90;99.90
24148;DHT22;12309;51.450;-2.624;2023-02-19T10:08:46;10.90;99.90
24148;DHT22;12309;51.450;-2.624;2023-02-19T10:11:13;10.80;99.90
24148;DHT22;12309;51.450;-2.624;2023-02-19T10:13:46;10.80;99.90
24148;DHT22;12309;51.450;-2.624;2023-02-19T10:16:19;11.80;99.90
24148;DHT22;12309;51.450;-2.624;2023-02-19T10:21:21;12.80;99.90
24148;DHT22;12309;51.450;-2.624;2023-02-19T10:23:51;12.90;99.90
24148;DHT22;12309;51.450;-2.624;2023-02-19T10:26:18;12.60;99.90
24148;DHT22;12309;51.450;-2.624;2023-02-19T10:28:44;12.30;99.90
24148;DHT22;12309;51.450;-2.624;2023-02-19T10:31:19;12.00;99.90
24148;DHT22;12309;51.450;-2.624;2023-02-19T10:33:56;12.40;99.90
24148;DHT22;12309;51.450;-2.624;2023-02-19T10:38:51;13.40;99.90
24148;DHT22;12309;51.450;-2.624;2023-02-19T10:41:19;13.70;99.90
24148;DHT22;12309;51.450;-2.624;2023-02-19T10:44:06;14.50;99.90
24148;DHT22;12309;51.450;-2.624;2023-02-19T10:46:34;16.70;99.90
24148;DHT22;12309;51.450;-2.624;2023-02-19T10:49:04;16.70;99.90
24148;DHT22;12309;51.450;-2.624;2023-02-19T10:51:36;18.90;99.90
24148;DHT22;12309;51.450;-2.624;2023-02-19T10:54:24;17.90;99.90
24148;DHT22;12309;51.450;-2.624;2023-02-19T10:56:51;16.40;99.90
24148;DHT22;12309;51.450;-2.624;2023-02-19T11:02:02;16.00;99.90
24148;DHT22;12309;51.450;-2.624;2023-02-19T11:04:30;15.80;99.90
24148;DHT22;12309;51.450;-2.624;2023-02-19T11:07:09;16.10;99.90
24148;DHT22;12309;51.450;-2.624;2023-02-19T11:09:43;16.90;99.90
24148;DHT22;12309;51.450;-2.624;2023-02-19T11:12:12;17.60;99.90
24148;DHT22;12309;51.450;-2.624;2023-02-19T11:14:42;17.70;99.90
24148;DHT22;12309;51.450;-2.624;2023-02-19T11:17:26;17.00;99.90
24148;DHT22;12309;51.450;-2.624;2023-02-19T11:20:01;17.50;99.90
24148;DHT22;12309;51.450;-2.624;2023-02-19T11:22:41;19.20;99.90
24148;DHT22;12309;51.450;-2.624;2023-02-19T11:28:02;20.60;99.90
24148;DHT22;12309;51.450;-2.624;2023-02-19T11:36:15;21.10;99.90
24148;DHT22;12309;51.450;-2.624;2023-02-19T11:38:42;21.10;99.90
24148;DHT22;12309;51.450;-2.624;2023-02-19T11:47:25;22.20;99.90
24148;DHT22;12309;51.450;-2.624;2023-02-19T11:50:09;22.40;99.90
24148;DHT22;12309;51.450;-2.624;2023-02-19T11:58:42;23.20;99.90
24148;DHT22;12309;51.450;-2.624;2023-02-19T12:00:51;23.40;99.90
24148;DHT22;12309;51.450;-2.624;2023-02-19T12:03:54;23.40;99.90
24148;DHT22;12309;51.450;-2.624;2023-02-19T12:15:22;23.10;99.90
24148;DHT22;12309;51.450;-2.624;2023-02-19T12:36:57;21.20;99.90
24148;DHT22;12309;51.450;-2.624;2023-02-19T12:40:08;22.30;99.90
24148;DHT22;12309;51.450;-2.624;2023-02-19T12:45:06;20.60;99.90
24148;DHT22;12309;51.450;-2.624;2023-02-19T12:47:38;21.00;99.90
24148;DHT22;12309;51.450;-2.624;2023-02-19T12:50:18;21.20;99.90
24148;DHT22;12309;51.450;-2.624;2023-02-19T12:52:49;20.60;99.90
24148;DHT22;12309;51.450;-2.624;2023-02-19T12:55:25;21.30;99.90
24148;DHT22;12309;51.450;-2.624;2023-02-19T12:57:53;21.20;99.90
24148;DHT22;12309;51.450;-2.624;2023-02-19T13:00:40;21.30;99.90
24148;DHT22;12309;51.450;-2.624;2023-02-19T13:03:12;21.40;99.90
24148;DHT22;12309;51.450;-2.624;2023-02-19T13:08:57;22.10;99.90
24148;DHT22;12309;51.450;-2.624;2023-02-19T13:11:35;20.20;99.90
24148;DHT22;12309;51.450;-2.624;2023-02-19T13:14:13;21.00;99.90
24148;DHT22;12309;51.450;-2.624;2023-02-19T13:16:45;20.50;99.90
24148;DHT22;12309;51.450;-2.624;2023-02-19T13:19:12;21.00;99.90
24148;DHT22;12309;51.450;-2.624;2023-02-19T13:21:40;21.20;99.90
24148;DHT22;12309;51.450;-2.624;2023-02-19T13:24:31;19.70;99.90
24148;DHT22;12309;51.450;-2.624;2023-02-19T13:38:31;18.70;99.90
24148;DHT22;12309;51.450;-2.624;2023-02-19T13:40:59;18.00;99.90
24148;DHT22;12309;51.450;-2.624;2023-02-19T13:43:28;19.00;99.90
24148;DHT22;12309;51.450;-2.624;2023-02-19T13:46:01;19.50;99.90
24148;DHT22;12309;51.450;-2.624;2023-02-19T13:48:30;19.70;99.90
24148;DHT22;12309;51.450;-2.624;2023-02-19T14:14:34;16.90;99.90
24148;DHT22;12309;51.450;-2.624;2023-02-19T14:27:48;18.60;99.90
24148;DHT22;12309;51.450;-2.624;2023-02-19T14:30:14;18.80;99.90
24148;DHT22;12309;51.450;-2.624;2023-02-19T14:32:41;17.40;99.90
24148;DHT22;12309;51.450;-2.624;2023-02-19T14:35:20;17.40;99.90
24148;DHT22;12309;51.450;-2.624;2023-02-19T14:37:48;18.60;99.90
24148;DHT22;12309;51.450;-2.624;2023-02-19T14:40:26;18.90;99.90
24148;DHT22;12309;51.450;-2.624;2023-02-19T14:42:53;19.40;99.90
24148;DHT22;12309;51.450;-2.624;2023-02-19T14:45:21;19.70;99.90
24148;DHT22;12309;51.450;-2.624;2023-02-19T14:47:47;19.10;99.90
24148;DHT22;12309;51.450;-2.624;2023-02-19T14:50:20;19.00;99.90
24148;DHT22;12309;51.450;-2.624;2023-02-19T14:52:52;19.10;99.90
24148;DHT22;12309;51.450;-2.624;2023-02-19T14:55:33;19.30;99.90
24148;DHT22;12309;51.450;-2.624;2023-02-19T14:58:04;19.00;99.90
24148;DHT22;12309;51.450;-2.624;2023-02-19T15:00:37;18.00;99.90
24148;DHT22;12309;51.450;-2.624;2023-02-19T15:03:04;17.80;99.90
24148;DHT22;12309;51.450;-2.624;2023-02-19T15:05:32;17.50;99.90
24148;DHT22;12309;51.450;-2.624;2023-02-19T15:08:00;18.00;99.90
24148;DHT22;12309;51.450;-2.624;2023-02-19T15:10:29;17.90;99.90
24148;DHT22;12309;51.450;-2.624;2023-02-19T15:12:59;17.50;99.90
24148;DHT22;12309;51.450;-2.624;2023-02-19T15:15:30;17.60;99.90
24148;DHT22;12309;51.450;-2.624;2023-02-19T15:17:58;17.60;99.90
24148;DHT22;12309;51.450;-2.624;2023-02-19T15:20:31;17.70;99.90
24148;DHT22;12309;51.450;-2.624;2023-02-19T15:22:58;18.00;99.90
24148;DHT22;12309;51.450;-2.624;2023-02-19T15:25:35;17.40;99.90
24148;DHT22;12309;51.450;-2.624;2023-02-19T15:28:33;18.30;99.90
24148;DHT22;12309;51.450;-2.624;2023-02-19T15:33:26;18.80;99.90
24148;DHT22;12309;51.450;-2.624;2023-02-19T15:36:00;18.20;99.90
24148;DHT22;12309;51.450;-2.624;2023-02-19T15:38:27;18.00;99.90
24148;DHT22;12309;51.450;-2.624;2023-02-19T15:40:53;17.30;99.90
24148;DHT22;12309;51.450;-2.624;2023-02-19T15:43:45;18.00;99.90
24148;DHT22;12309;51.450;-2.624;2023-02-19T15:46:20;18.20;99.90
24148;DHT22;12309;51.450;-2.624;2023-02-19T15:49:06;18.00;99.90
24148;DHT22;12309;51.450;-2.624;2023-02-19T15:51:35;16.80;99.90
24148;DHT22;12309;51.450;-2.624;2023-02-19T15:54:32;16.80;99.90
24148;DHT22;12309;51.450;-2.624;2023-02-19T15:57:05;16.70;99.90
24148;DHT22;12309;51.450;-2.624;2023-02-19T15:59:54;15.60;99.90
24148;DHT22;12309;51.450;-2.624;2023-02-19T16:02:21;15.90;99.90
24148;DHT22;12309;51.450;-2.624;2023-02-19T16:04:47;15.70;99.90
24148;DHT22;12309;51.450;-2.624;2023-02-19T16:07:27;15.70;99.90
24148;DHT22;12309;51.450;-2.624;2023-02-19T16:10:18;15.80;99.90
24148;DHT22;12309;51.450;-2.624;2023-02-19T16:12:57;16.20;99.90
24148;DHT22;12309;51.450;-2.624;2023-02-19T16:15:24;17.30;99.90
24148;DHT22;12309;51.450;-2.624;2023-02-19T16:17:49;17.00;99.90
24148;DHT22;12309;51.450;-2.624;2023-02-19T16:20:27;16.90;99.90
24148;DHT22;12309;51.450;-2.624;2023-02-19T16:23:12;16.50;99.90
24148;DHT22;12309;51.450;-2.624;2023-02-19T16:25:40;15.10;99.90
24148;DHT22;12309;51.450;-2.624;2023-02-19T16:28:20;14.10;99.90
24148;DHT22;12309;51.450;-2.624;2023-02-19T16:30:54;15.20;99.90
24148;DHT22;12309;51.450;-2.624;2023-02-19T16:33:34;15.20;99.90
24148;DHT22;12309;51.450;-2.624;2023-02-19T16:36:20;13.90;99.90
24148;DHT22;12309;51.450;-2.624;2023-02-19T16:46:56;12.00;99.90
24148;DHT22;12309;51.450;-2.624;2023-02-19T16:49:22;11.90;99.90
24148;DHT22;12309;51.450;-2.624;2023-02-19T16:51:48;11.80;99.90
24148;DHT22;12309;51.450;-2.624;2023-02-19T16:54:15;11.50;99.90
24148;DHT22;12309;51.450;-2.624;2023-02-19T16:56:40;11.40;99.90
24148;DHT22;12309;51.450;-2.624;2023-02-19T16:59:06;11.30;99.90
24148;DHT22;12309;51.450;-2.624;2023-02-19T17:01:33;11.30;99.90
24148;DHT22;12309;51.450;-2.624;2023-02-19T17:04:03;11.20;99.90
24148;DHT22;12309;51.450;-2.624;2023-02-19T17:06:29;11.10;99.90
24148;DHT22;12309;51.450;-2.624;2023-02-19T17:08:57;10.90;99.90
24148;DHT22;12309;51.450;-2.624;2023-02-19T17:11:23;10.80;99.90
24148;DHT22;12309;51.450;-2.624;2023-02-19T17:13:49;10.60;99.90
24148;DHT22;12309;51.450;-2.624;2023-02-19T17:16:21;10.70;99.90
24148;DHT22;12309;51.450;-2.624;2023-02-19T17:18:47;10.50;99.90
24148;DHT22;12309;51.450;-2.624;2023-02-19T17:21:24;10.60;99.90
24148;DHT22;12309;51.450;-2.624;2023-02-19T17:23:50;10.50;99.90
24148;DHT22;12309;51.450;-2.624;2023-02-19T17:26:22;10.30;99.90
24148;DHT22;12309;51.450;-2.624;2023-02-19T17:28:48;10.30;99.90
24148;DHT22;12309;51.450;-2.624;2023-02-19T17:31:14;10.30;99.90
24148;DHT22;12309;51.450;-2.624;2023-02-19T17:33:40;10.40;99.90
24148;DHT22;12309;51.450;-2.624;2023-02-19T17:36:07;10.90;99.90
24148;DHT22;12309;51.450;-2.624;2023-02-19T17:38:32;10.30;99.90
24148;DHT22;12309;51.450;-2.624;2023-02-19T17:40:58;10.20;99.90
24148;DHT22;12309;51.450;-2.624;2023-02-19T17:43:24;10.30;99.90
24148;DHT22;12309;51.450;-2.624;2023-02-19T17:45:50;10.20;99.90
24148;DHT22;12309;51.450;-2.624;2023-02-19T17:48:15;10.40;99.90
24148;DHT22;12309;51.450;-2.624;2023-02-19T17:50:41;10.40;99.90
24148;DHT22;12309;51.450;-2.624;2023-02-19T17:53:07;10.30;99.90
24148;DHT22;12309;51.450;-2.624;2023-02-19T17:55:33;10.40;99.90
24148;DHT22;12309;51.450;-2.624;2023-02-19T17:57:59;10.30;99.90
24148;DHT22;12309;51.450;-2.624;2023-02-19T18:00:27;10.30;99.90
24148;DHT22;12309;51.450;-2.624;2023-02-19T18:02:53;10.40;99.90
24148;DHT22;12309;51.450;-2.624;2023-02-19T18:05:19;10.40;99.90
24148;DHT22;12309;51.450;-2.624;2023-02-19T18:07:46;10.40;99.90
24148;DHT22;12309;51.450;-2.624;2023-02-19T18:12:38;10.30;99.90
24148;DHT22;12309;51.450;-2.624;2023-02-19T18:15:05;10.30;99.90
24148;DHT22;12309;51.450;-2.624;2023-02-19T18:17:32;10.40;99.90
24148;DHT22;12309;51.450;-2.624;2023-02-19T18:19:58;10.90;99.90
24148;DHT22;12309;51.450;-2.624;2023-02-19T18:22:23;10.40;99.90
24148;DHT22;12309;51.450;-2.624;2023-02-19T18:24:51;10.50;99.90
24148;DHT22;12309;51.450;-2.624;2023-02-19T18:27:17;10.50;99.90
24148;DHT22;12309;51.450;-2.624;2023-02-19T18:29:51;10.60;99.90
24148;DHT22;12309;51.450;-2.624;2023-02-19T18:32:22;10.50;99.90
24148;DHT22;12309;51.450;-2.624;2023-02-19T18:34:53;10.50;99.90
24148;DHT22;12309;51.450;-2.624;2023-02-19T18:37:20;10.40;99.90
24148;DHT22;12309;51.450;-2.624;2023-02-19T18:39:46;10.50;99.90
24148;DHT22;12309;51.450;-2.624;2023-02-19T18:42:12;10.40;99.90